Terminal Aerodrome Forecast
Issued by NWS Wilmington, OH

Current Version | Previous Version | Text Only | Print | Product List | Glossary Off
Versions: 1 2 3 4 5 6 7 8 9 10 11 12 13 14 15 16 17 18 19 20 21

000
FTUS41 KILN 302300
TAFCVG
TAF
KCVG 302327Z 0100/0206 34008KT P6SM SCT060 SCT090
      TEMPO 0100/0101 -SHRA BKN040 OVC090
     FM011300 35010KT P6SM SCT050
      TEMPO 0119/0123 35010G18KT BKN050
     FM012300 34005KT P6SM SCT050
     FM020200 VRB03KT P6SM SKC=

USA.gov is the U.S. government's official web portal to all federal, state and local government web resources and services.